Time,TemperatureF,DewpointF,PressureIn,WindDirection,WindDirectionDegrees,WindSpeedMPH,WindSpeedGustMPH,Humidity,HourlyPrecipIn,Conditions,Clouds,dailyrainin,SoftwareType,DateUTC
2013-07-01 00:01:00,68.0,51.0,29.99,NE,40,8.0,8.0,54,0.00,,,0.00,,2013-07-01 05:01:00,
2013-07-01 00:11:00,68.0,51.0,29.99,NE,40,8.0,8.0,54,0.00,,,0.00,,2013-07-01 05:11:00,
2013-07-01 00:22:00,68.0,51.0,29.99,NE,40,8.0,8.0,54,0.00,,,0.00,,2013-07-01 05:22:00,
2013-07-01 00:33:00,68.0,43.0,29.98,NNE,30,9.0,9.0,41,0.00,,,0.00,,2013-07-01 05:33:00,
2013-07-01 00:42:00,68.0,43.0,29.98,NNE,30,9.0,9.0,41,0.00,,,0.00,,2013-07-01 05:42:00,
2013-07-01 00:52:00,68.0,43.0,29.98,NNE,30,9.0,9.0,41,0.00,,,0.00,,2013-07-01 05:52:00,
2013-07-01 01:02:00,68.0,43.0,29.98,NNE,30,9.0,9.0,41,0.00,,,0.00,,2013-07-01 06:02:00,
2013-07-01 01:12:00,68.0,43.0,29.98,NNE,30,9.0,9.0,41,0.00,,,0.00,,2013-07-01 06:12:00,
2013-07-01 01:24:00,68.0,43.0,29.98,NNE,30,9.0,9.0,41,0.00,,,0.00,,2013-07-01 06:24:00,
2013-07-01 01:33:00,65.0,46.0,29.98,NNE,20,8.0,9.0,50,0.00,,,0.00,,2013-07-01 06:33:00,
2013-07-01 01:43:00,65.0,46.0,29.98,NNE,20,8.0,9.0,50,0.00,,,0.00,,2013-07-01 06:43:00,
2013-07-01 01:53:00,65.0,46.0,29.98,NNE,20,8.0,8.0,50,0.00,,,0.00,,2013-07-01 06:53:00,
2013-07-01 02:01:00,65.0,46.0,29.98,NNE,20,8.0,8.0,50,0.00,,,0.00,,2013-07-01 07:01:00,
2013-07-01 02:11:00,65.0,46.0,29.98,NNE,20,8.0,8.0,50,0.00,,,0.00,,2013-07-01 07:11:00,
2013-07-01 02:22:00,65.0,46.0,29.98,NNE,20,8.0,8.0,50,0.00,,,0.00,,2013-07-01 07:22:00,
2013-07-01 02:33:00,63.0,46.0,29.98,NNE,20,8.0,8.0,53,0.00,,,0.00,,2013-07-01 07:33:00,
2013-07-01 02:43:00,63.0,46.0,29.98,NNE,20,8.0,8.0,53,0.00,,,0.00,,2013-07-01 07:43:00,
2013-07-01 02:53:00,63.0,46.0,29.98,NNE,20,8.0,8.0,53,0.00,,,0.00,,2013-07-01 07:53:00,
2013-07-01 03:01:00,63.0,46.0,29.98,NNE,20,8.0,8.0,53,0.00,,,0.00,,2013-07-01 08:01:00,
2013-07-01 03:11:00,63.0,46.0,29.98,NNE,20,8.0,8.0,53,0.00,,,0.00,,2013-07-01 08:11:00,
2013-07-01 03:22:00,63.0,46.0,29.98,NNE,20,8.0,8.0,53,0.00,,,0.00,,2013-07-01 08:22:00,
2013-07-01 03:33:00,63.0,47.0,29.98,North,0,3.0,8.0,55,0.00,,,0.00,,2013-07-01 08:33:00,
2013-07-01 03:42:00,63.0,47.0,29.98,North,0,3.0,8.0,55,0.00,,,0.00,,2013-07-01 08:42:00,
2013-07-01 03:52:00,63.0,47.0,29.98,North,0,3.0,3.0,55,0.00,,,0.00,,2013-07-01 08:52:00,
2013-07-01 04:02:00,63.0,47.0,29.98,North,0,3.0,3.0,55,0.00,,,0.00,,2013-07-01 09:02:00,
2013-07-01 04:11:00,63.0,47.0,29.98,North,0,3.0,3.0,55,0.00,,,0.00,,2013-07-01 09:11:00,
2013-07-01 04:22:00,63.0,47.0,29.98,North,0,3.0,3.0,55,0.00,,,0.00,,2013-07-01 09:22:00,
2013-07-01 04:34:00,62.0,47.0,29.98,North,0,3.0,3.0,57,0.00,,,0.00,,2013-07-01 09:34:00,
2013-07-01 04:43:00,62.0,47.0,29.98,North,0,3.0,3.0,57,0.00,,,0.00,,2013-07-01 09:43:00,
2013-07-01 04:53:00,62.0,47.0,29.98,North,0,3.0,3.0,57,0.00,,,0.00,,2013-07-01 09:53:00,
2013-07-01 05:03:00,62.0,47.0,29.98,North,0,3.0,3.0,57,0.00,,,0.00,,2013-07-01 10:03:00,
2013-07-01 05:11:00,62.0,47.0,29.98,North,0,3.0,3.0,57,0.00,,,0.00,,2013-07-01 10:11:00,
2013-07-01 05:22:00,62.0,47.0,29.98,North,0,3.0,3.0,57,0.00,,,0.00,,2013-07-01 10:22:00,
2013-07-01 05:33:00,61.0,48.0,29.98,NNE,20,5.0,5.0,62,0.00,,,0.00,,2013-07-01 10:33:00,
2013-07-01 05:42:00,61.0,48.0,29.98,NNE,20,5.0,5.0,62,0.00,,,0.00,,2013-07-01 10:42:00,
2013-07-01 05:52:00,61.0,48.0,29.98,NNE,20,5.0,5.0,62,0.00,,,0.00,,2013-07-01 10:52:00,
2013-07-01 06:02:00,61.0,48.0,29.98,NNE,20,5.0,5.0,62,0.00,,,0.00,,2013-07-01 11:02:00,
2013-07-01 06:11:00,61.0,48.0,29.98,NNE,20,5.0,5.0,62,0.00,,,0.00,,2013-07-01 11:11:00,
2013-07-01 06:22:00,61.0,48.0,29.98,NNE,20,5.0,5.0,62,0.00,,,0.00,,2013-07-01 11:22:00,
2013-07-01 06:33:00,60.0,49.0,30.00,NNE,30,3.0,5.0,66,0.00,,,0.00,,2013-07-01 11:33:00,
2013-07-01 06:43:00,60.0,49.0,30.00,NNE,30,3.0,5.0,66,0.00,,,0.00,,2013-07-01 11:43:00,
2013-07-01 06:52:00,60.0,49.0,30.00,NNE,30,3.0,3.0,66,0.00,,,0.00,,2013-07-01 11:52:00,
2013-07-01 07:01:00,60.0,49.0,30.00,NNE,30,3.0,3.0,66,0.00,,,0.00,,2013-07-01 12:01:00,
2013-07-01 07:11:00,60.0,49.0,30.00,NNE,30,3.0,3.0,66,0.00,,,0.00,,2013-07-01 12:11:00,
2013-07-01 07:22:00,60.0,49.0,30.00,NNE,30,3.0,3.0,66,0.00,,,0.00,,2013-07-01 12:22:00,
2013-07-01 07:33:00,60.0,51.0,30.01,North,10,3.0,3.0,72,0.00,,,0.00,,2013-07-01 12:33:00,
2013-07-01 07:43:00,60.0,51.0,30.01,North,10,3.0,3.0,72,0.00,,,0.00,,2013-07-01 12:43:00,
2013-07-01 07:53:00,60.0,51.0,30.01,North,10,3.0,3.0,72,0.00,,,0.00,,2013-07-01 12:53:00,
2013-07-01 08:02:00,60.0,51.0,30.01,North,10,3.0,3.0,72,0.00,,,0.00,,2013-07-01 13:02:00,
2013-07-01 08:12:00,60.0,51.0,30.01,North,10,3.0,3.0,72,0.00,,,0.00,,2013-07-01 13:12:00,
2013-07-01 08:23:00,60.0,51.0,30.01,North,10,3.0,3.0,72,0.00,,,0.00,,2013-07-01 13:23:00,
2013-07-01 08:33:00,63.0,52.0,30.02,North,10,5.0,5.0,67,0.00,,,0.00,,2013-07-01 13:33:00,
2013-07-01 08:43:00,63.0,52.0,30.02,North,10,5.0,5.0,67,0.00,,,0.00,,2013-07-01 13:43:00,
2013-07-01 08:53:00,63.0,52.0,30.02,North,10,5.0,5.0,67,0.00,,,0.00,,2013-07-01 13:53:00,
2013-07-01 09:22:00,63.0,52.0,30.02,North,10,5.0,5.0,67,0.00,,,0.00,,2013-07-01 14:22:00,
2013-07-01 09:34:00,69.0,53.0,30.03,NE,40,7.0,7.0,56,0.00,,,0.00,,2013-07-01 14:34:00,
2013-07-01 09:43:00,69.0,53.0,30.03,NE,40,7.0,7.0,56,0.00,,,0.00,,2013-07-01 14:43:00,
2013-07-01 09:53:00,69.0,53.0,30.03,NE,40,7.0,7.0,56,0.00,,,0.00,,2013-07-01 14:53:00,
2013-07-01 10:02:00,69.0,53.0,30.03,NE,40,7.0,7.0,56,0.00,,,0.00,,2013-07-01 15:02:00,
2013-07-01 10:11:00,69.0,53.0,30.03,NE,40,7.0,7.0,56,0.00,,,0.00,,2013-07-01 15:11:00,
2013-07-01 10:23:00,69.0,53.0,30.03,NE,40,7.0,7.0,56,0.00,,,0.00,,2013-07-01 15:23:00,
2013-07-01 10:34:00,71.0,51.0,30.03,NNE,30,8.0,8.0,49,0.00,,,0.00,,2013-07-01 15:34:00,
2013-07-01 10:43:00,71.0,51.0,30.03,NNE,30,8.0,8.0,49,0.00,,,0.00,,2013-07-01 15:43:00,
2013-07-01 10:53:00,71.0,51.0,30.03,NNE,30,8.0,8.0,49,0.00,,,0.00,,2013-07-01 15:53:00,
2013-07-01 11:01:00,71.0,51.0,30.03,NNE,30,8.0,8.0,49,0.00,,,0.00,,2013-07-01 16:01:00,
2013-07-01 11:11:00,71.0,51.0,30.03,NNE,30,8.0,8.0,49,0.00,,,0.00,,2013-07-01 16:11:00,
2013-07-01 11:22:00,71.0,51.0,30.03,NNE,30,8.0,8.0,49,0.00,,,0.00,,2013-07-01 16:22:00,
2013-07-01 11:33:00,74.0,49.0,30.03,NE,40,13.0,20.0,42,0.00,,,0.00,,2013-07-01 16:33:00,
2013-07-01 11:44:00,74.0,49.0,30.03,NE,40,13.0,20.0,42,0.00,,,0.00,,2013-07-01 16:44:00,
2013-07-01 11:53:00,74.0,49.0,30.03,NE,40,13.0,20.0,42,0.00,,,0.00,,2013-07-01 16:53:00,
2013-07-01 12:02:00,74.0,49.0,30.03,NE,40,13.0,20.0,42,0.00,,,0.00,,2013-07-01 17:02:00,
2013-07-01 12:12:00,74.0,49.0,30.03,NE,40,13.0,20.0,42,0.00,,,0.00,,2013-07-01 17:12:00,
2013-07-01 12:23:00,74.0,49.0,30.03,NE,40,13.0,20.0,42,0.00,,,0.00,,2013-07-01 17:23:00,
2013-07-01 13:22:00,76.0,49.0,30.02,NE,50,12.0,25.0,38,0.00,,,0.00,,2013-07-01 18:22:00,
2013-07-01 13:33:00,77.0,49.0,30.01,NE,50,12.0,25.0,37,0.00,,,0.00,,2013-07-01 18:33:00,
2013-07-01 13:43:00,77.0,49.0,30.01,NE,50,12.0,25.0,37,0.00,,,0.00,,2013-07-01 18:43:00,
2013-07-01 13:53:00,77.0,49.0,30.01,NE,50,12.0,24.0,37,0.00,,,0.00,,2013-07-01 18:53:00,
2013-07-01 14:02:00,77.0,49.0,30.01,NE,50,12.0,24.0,37,0.00,,,0.00,,2013-07-01 19:02:00,
2013-07-01 14:11:00,77.0,49.0,30.01,NE,50,12.0,24.0,37,0.00,,,0.00,,2013-07-01 19:11:00,
2013-07-01 14:22:00,77.0,49.0,30.01,NE,50,12.0,24.0,37,0.00,,,0.00,,2013-07-01 19:22:00,
2013-07-01 14:33:00,79.0,53.0,30.01,NNE,30,9.0,24.0,40,0.00,,,0.00,,2013-07-01 19:33:00,
2013-07-01 14:44:00,79.0,53.0,30.01,NNE,30,9.0,24.0,40,0.00,,,0.00,,2013-07-01 19:44:00,
2013-07-01 14:53:00,78.0,50.0,30.01,NNE,20,9.0,25.0,37,0.00,,,0.00,,2013-07-01 19:53:00,
2013-07-01 15:02:00,78.0,50.0,30.01,NNE,20,9.0,25.0,37,0.00,,,0.00,,2013-07-01 20:02:00,
2013-07-01 15:11:00,78.0,50.0,30.01,NNE,20,9.0,25.0,37,0.00,,,0.00,,2013-07-01 20:11:00,
2013-07-01 15:22:00,78.0,50.0,30.01,NNE,20,9.0,25.0,37,0.00,,,0.00,,2013-07-01 20:22:00,
2013-07-01 15:34:00,79.0,50.0,30.01,NE,50,12.0,26.0,37,0.00,,,0.00,,2013-07-01 20:34:00,
2013-07-01 15:43:00,79.0,50.0,30.01,NE,50,12.0,26.0,37,0.00,,,0.00,,2013-07-01 20:43:00,
2013-07-01 15:52:00,79.0,50.0,30.01,NE,50,12.0,26.0,37,0.00,,,0.00,,2013-07-01 20:52:00,
2013-07-01 16:01:00,79.0,50.0,30.01,NE,50,12.0,26.0,37,0.00,,,0.00,,2013-07-01 21:01:00,
2013-07-01 16:11:00,79.0,50.0,30.01,NE,50,12.0,26.0,37,0.00,,,0.00,,2013-07-01 21:11:00,
2013-07-01 16:24:00,79.0,50.0,30.01,NE,50,12.0,26.0,37,0.00,,,0.00,,2013-07-01 21:24:00,
2013-07-01 16:34:00,79.0,52.0,30.01,NE,40,14.0,26.0,39,0.00,,,0.00,,2013-07-01 21:34:00,
2013-07-01 16:43:00,79.0,52.0,30.01,NE,40,14.0,26.0,39,0.00,,,0.00,,2013-07-01 21:43:00,
2013-07-01 16:53:00,79.0,52.0,30.01,NE,40,14.0,24.0,39,0.00,,,0.00,,2013-07-01 21:53:00,
2013-07-01 17:01:00,79.0,52.0,30.01,NE,40,14.0,24.0,39,0.00,,,0.00,,2013-07-01 22:01:00,
2013-07-01 17:11:00,79.0,52.0,30.01,NE,40,14.0,24.0,39,0.00,,,0.00,,2013-07-01 22:11:00,
2013-07-01 17:24:00,79.0,52.0,30.01,NE,40,14.0,24.0,39,0.00,,,0.00,,2013-07-01 22:24:00,
2013-07-01 17:33:00,77.0,47.0,30.01,NNE,30,12.0,24.0,35,0.00,,,0.00,,2013-07-01 22:33:00,
2013-07-01 18:11:00,77.0,47.0,30.01,NNE,30,12.0,24.0,35,0.00,,,0.00,,2013-07-01 23:11:00,
2013-07-01 18:22:00,77.0,47.0,30.01,NNE,30,12.0,24.0,35,0.00,,,0.00,,2013-07-01 23:22:00,
2013-07-01 18:33:00,76.0,48.0,30.01,NE,40,13.0,24.0,37,0.00,,,0.00,,2013-07-01 23:33:00,
2013-07-01 18:44:00,76.0,48.0,30.01,NE,40,13.0,24.0,37,0.00,,,0.00,,2013-07-01 23:44:00,
2013-07-01 18:53:00,76.0,48.0,30.01,NE,40,13.0,23.0,37,0.00,,,0.00,,2013-07-01 23:53:00,
2013-07-01 19:01:00,76.0,48.0,30.01,NE,40,13.0,23.0,37,0.00,,,0.00,,2013-07-02 00:01:00,
2013-07-01 19:12:00,76.0,48.0,30.01,NE,40,13.0,23.0,37,0.00,,,0.00,,2013-07-02 00:12:00,
2013-07-01 19:22:00,76.0,48.0,30.01,NE,40,13.0,23.0,37,0.00,,,0.00,,2013-07-02 00:22:00,
2013-07-01 19:34:00,75.0,48.0,30.01,NNE,30,12.0,23.0,38,0.00,,,0.00,,2013-07-02 00:34:00,
2013-07-01 19:43:00,75.0,48.0,30.01,NNE,30,12.0,23.0,38,0.00,,,0.00,,2013-07-02 00:43:00,
2013-07-01 19:53:00,75.0,48.0,30.01,NNE,30,12.0,21.0,38,0.00,,,0.00,,2013-07-02 00:53:00,
2013-07-01 20:01:00,75.0,48.0,30.01,NNE,30,12.0,21.0,38,0.00,,,0.00,,2013-07-02 01:01:00,
2013-07-01 20:11:00,75.0,48.0,30.01,NNE,30,12.0,21.0,38,0.00,,,0.00,,2013-07-02 01:11:00,
2013-07-01 20:22:00,75.0,48.0,30.01,NNE,30,12.0,21.0,38,0.00,,,0.00,,2013-07-02 01:22:00,
2013-07-01 21:33:00,71.0,47.0,30.03,NE,40,9.0,24.0,43,0.00,,,0.00,,2013-07-02 02:33:00,
2013-07-01 21:43:00,71.0,47.0,30.03,NE,40,9.0,24.0,43,0.00,,,0.00,,2013-07-02 02:43:00,
2013-07-01 21:53:00,71.0,47.0,30.03,NE,40,9.0,24.0,43,0.00,,,0.00,,2013-07-02 02:53:00,
2013-07-01 22:01:00,71.0,47.0,30.03,NE,40,9.0,24.0,43,0.00,,,0.00,,2013-07-02 03:01:00,
2013-07-01 22:12:00,71.0,47.0,30.03,NE,40,9.0,24.0,43,0.00,,,0.00,,2013-07-02 03:12:00,
2013-07-01 22:24:00,71.0,47.0,30.03,NE,40,9.0,24.0,43,0.00,,,0.00,,2013-07-02 03:24:00,
2013-07-01 22:32:00,70.0,50.0,30.05,NNE,30,8.0,24.0,49,0.00,,,0.00,,2013-07-02 03:32:00,
2013-07-01 22:43:00,70.0,50.0,30.05,NNE,30,8.0,24.0,49,0.00,,,0.00,,2013-07-02 03:43:00,
2013-07-01 22:53:00,70.0,50.0,30.05,NNE,30,8.0,8.0,49,0.00,,,0.00,,2013-07-02 03:53:00,
2013-07-01 23:02:00,70.0,50.0,30.05,NNE,30,8.0,8.0,49,0.00,,,0.00,,2013-07-02 04:02:00,
2013-07-01 23:11:00,70.0,50.0,30.05,NNE,30,8.0,8.0,49,0.00,,,0.00,,2013-07-02 04:11:00,
2013-07-01 23:22:00,70.0,50.0,30.05,NNE,30,8.0,8.0,49,0.00,,,0.00,,2013-07-02 04:22:00,
2013-07-01 23:32:00,70.0,50.0,30.05,NNE,30,8.0,8.0,49,0.00,,,0.00,,2013-07-02 04:32:00,
2013-07-01 23:42:00,70.0,50.0,30.05,NNE,30,8.0,8.0,49,0.00,,,0.00,,2013-07-02 04:42:00,
2013-07-01 23:53:00,70.0,50.0,30.05,NNE,30,8.0,8.0,49,0.00,,,0.00,,2013-07-02 04:53:00,